Time;durP1;ratioP1;P1;durP2;ratioP2;P2;SDS_P1;SDS_P2;PMS_P1;PMS_P2;Temp;Humidity;BMP_temperature;BMP_pressure;BME280_temperature;BME280_humidity;BME280_pressure;Samples;Min_cycle;Max_cycle;Signal;HPM_P1;HPM_P2
2020/12/06 00:00:32;;;;;;;5.07;2.22;;;;;;;7.51;68.12;99114.69;5123531;27;20051;-70
2020/12/06 00:02:59;;;;;;;8.57;2.60;;;;;;;7.50;68.39;99115.78;5102355;27;20039;-74
2020/12/06 00:05:26;;;;;;;8.98;2.70;;;;;;;7.35;67.99;99119.13;5102993;27;20051;-72
2020/12/06 00:07:53;;;;;;;6.03;2.63;;;;;;;7.38;68.25;99112.16;5118877;27;20043;-73
2020/12/06 00:10:20;;;;;;;5.68;2.63;;;;;;;7.34;67.93;99119.44;5120451;27;20044;-72
2020/12/06 00:12:47;;;;;;;7.03;2.65;;;;;;;7.30;68.66;99119.31;5112313;28;20431;-69
2020/12/06 00:15:13;;;;;;;6.32;2.72;;;;;;;7.00;69.01;99103.19;5113049;28;20502;-70
2020/12/06 00:17:40;;;;;;;8.82;2.88;;;;;;;7.19;69.00;99103.56;5112023;28;20048;-71
2020/12/06 00:20:11;;;;;;;5.25;2.67;;;;;;;7.24;68.27;99101.44;5107786;28;20047;-71
2020/12/06 00:22:38;;;;;;;5.88;2.70;;;;;;;7.38;68.33;99092.97;5105671;28;20511;-70
2020/12/06 00:25:05;;;;;;;6.22;2.63;;;;;;;7.28;68.09;99104.31;5112352;28;20039;-71
2020/12/06 00:27:35;;;;;;;5.97;2.50;;;;;;;7.35;67.68;99099.94;5112947;27;20059;-71
2020/12/06 00:30:11;;;;;;;4.53;2.40;;;;;;;7.20;68.11;99103.22;5105944;28;20047;-72
2020/12/06 00:32:39;;;;;;;5.90;2.47;;;;;;;7.16;68.56;99109.72;5111576;28;20043;-72
2020/12/06 00:35:07;;;;;;;6.40;3.05;;;;;;;7.42;67.93;99104.88;5112090;27;20075;-74
2020/12/06 00:37:40;;;;;;;5.88;2.78;;;;;;;7.56;67.52;99110.94;5108841;27;20055;-72
2020/12/06 00:40:09;;;;;;;6.18;2.35;;;;;;;7.31;68.66;99112.69;5105590;28;20048;-73
2020/12/06 00:42:37;;;;;;;5.07;2.30;;;;;;;7.19;69.49;99111.78;5112964;28;20056;-70
2020/12/06 00:45:07;;;;;;;6.40;2.97;;;;;;;7.30;68.58;99115.75;5112525;28;20058;-71
2020/12/06 00:47:37;;;;;;;6.80;3.20;;;;;;;7.23;68.84;99115.47;5094139;28;20075;-72
2020/12/06 00:50:06;;;;;;;7.53;3.55;;;;;;;7.25;68.73;99119.50;5093279;28;20525;-72
2020/12/06 00:52:37;;;;;;;8.15;4.07;;;;;;;7.11;68.51;99118.13;5111991;28;20057;-72
2020/12/06 00:55:05;;;;;;;6.55;3.20;;;;;;;7.14;69.03;99115.53;5117456;27;20117;-71
2020/12/06 00:57:33;;;;;;;7.90;3.38;;;;;;;7.16;68.90;99116.00;5087888;28;20054;-71
2020/12/06 01:00:00;;;;;;;9.05;3.38;;;;;;;7.17;69.21;99112.13;5111813;28;20486;-72
2020/12/06 01:02:26;;;;;;;7.72;3.42;;;;;;;6.82;69.89;99105.19;5112632;27;20044;-71
2020/12/06 01:04:53;;;;;;;7.93;3.90;;;;;;;7.02;69.95;99104.47;5112176;27;20054;-71
2020/12/06 01:07:20;;;;;;;7.00;3.33;;;;;;;7.04;69.46;99109.63;5115863;28;20513;-71
2020/12/06 01:09:47;;;;;;;8.48;3.40;;;;;;;7.19;68.68;99109.03;5116254;27;20051;-72
2020/12/06 01:12:20;;;;;;;5.95;3.10;;;;;;;7.16;68.69;99115.19;5131981;27;20051;-71
2020/12/06 01:14:47;;;;;;;6.30;3.22;;;;;;;7.10;69.24;99128.25;5112244;27;20051;-68
2020/12/06 01:17:15;;;;;;;8.07;3.17;;;;;;;7.07;69.12;99125.38;5109018;28;20523;-71
2020/12/06 01:19:42;;;;;;;5.68;3.03;;;;;;;6.96;69.12;99133.13;5109785;28;20051;-72
2020/12/06 01:22:09;;;;;;;7.60;3.20;;;;;;;6.97;69.32;99134.75;5098953;28;20070;-71
2020/12/06 01:24:38;;;;;;;6.80;3.10;;;;;;;7.18;68.85;99140.31;5126381;28;20399;-72
2020/12/06 01:27:05;;;;;;;6.15;3.10;;;;;;;7.06;68.72;99140.19;5110302;28;20040;-71
2020/12/06 01:29:32;;;;;;;7.13;2.72;;;;;;;6.94;69.76;99148.31;5112078;28;20399;-71
2020/12/06 01:31:59;;;;;;;6.97;3.17;;;;;;;7.41;68.77;99152.59;5110974;28;20047;-71
2020/12/06 01:34:26;;;;;;;6.65;2.83;;;;;;;7.29;67.98;99157.94;5112254;28;20043;-71
2020/12/06 01:36:53;;;;;;;6.72;3.50;;;;;;;7.21;68.25;99165.09;5112796;28;20052;-72
2020/12/06 01:39:24;;;;;;;;;;;;;;;7.16;68.78;99169.94;5111596;28;20050;-71
2020/12/06 01:41:54;;;;;;;7.75;3.28;;;;;;;6.99;69.28;99167.28;5093471;28;20383;-72
2020/12/06 01:44:22;;;;;;;5.70;2.95;;;;;;;7.07;68.97;99174.66;5110834;28;20048;-71
2020/12/06 01:46:51;;;;;;;9.98;3.50;;;;;;;7.07;69.09;99171.91;5111800;28;20044;-71
2020/12/06 01:49:22;;;;;;;9.93;3.92;;;;;;;7.08;68.87;99168.84;5112178;28;20066;-72
2020/12/06 01:51:56;;;;;;;7.68;3.90;;;;;;;7.05;68.33;99168.69;5093418;28;20048;-71
2020/12/06 01:54:23;;;;;;;7.72;4.03;;;;;;;7.12;68.83;99174.47;5110472;28;20486;-71
2020/12/06 01:56:50;;;;;;;8.75;4.07;;;;;;;7.11;67.58;99184.63;5110338;28;20407;-71
2020/12/06 01:59:17;;;;;;;7.20;3.90;;;;;;;6.91;68.63;99177.13;5107705;28;20395;-71
2020/12/06 02:02:14;;;;;;;7.43;4.35;;;;;;;7.09;68.32;99177.88;5093556;28;20070;-72
2020/12/06 02:04:44;;;;;;;7.05;4.22;;;;;;;7.07;68.09;99183.66;5067849;28;20048;-71
2020/12/06 02:07:11;;;;;;;8.37;4.17;;;;;;;7.05;68.15;99194.13;5059062;28;20060;-72
2020/12/06 02:09:38;;;;;;;7.90;4.15;;;;;;;6.92;68.10;99197.09;5062036;28;20288;-72
2020/12/06 02:12:10;;;;;;;8.82;4.80;;;;;;;6.66;69.36;99199.84;5068706;28;20056;-72
2020/12/06 02:14:37;;;;;;;9.85;5.03;;;;;;;6.87;68.65;99192.56;5036692;28;20048;-72
2020/12/06 02:17:04;;;;;;;10.27;5.55;;;;;;;6.89;68.74;99190.31;5069815;28;20064;-72
2020/12/06 02:19:31;;;;;;;8.23;4.63;;;;;;;7.09;68.08;99200.56;5054293;28;20045;-68
2020/12/06 02:21:58;;;;;;;10.43;5.45;;;;;;;7.09;67.92;99200.56;5066311;28;20052;-69
2020/12/06 02:24:25;;;;;;;7.78;4.03;;;;;;;6.85;68.09;99203.06;5038994;28;20056;-69
2020/12/06 02:26:52;;;;;;;9.23;4.43;;;;;;;6.96;67.92;99200.78;5067177;28;20049;-69
2020/12/06 02:29:19;;;;;;;8.55;4.72;;;;;;;6.62;68.80;99194.25;5071465;28;20048;-66
2020/12/06 02:31:47;;;;;;;9.25;4.60;;;;;;;6.86;67.98;99193.72;5045323;28;20048;-69
2020/12/06 02:34:14;;;;;;;8.13;4.45;;;;;;;6.70;68.18;99198.09;5048141;28;20064;-69
2020/12/06 02:36:40;;;;;;;8.43;5.18;;;;;;;6.63;68.04;99186.84;5072827;28;20056;-69
2020/12/06 02:39:09;;;;;;;9.90;4.45;;;;;;;6.44;68.99;99191.84;5063939;28;20508;-68
2020/12/06 02:41:44;;;;;;;10.60;4.68;;;;;;;6.32;69.03;99187.03;5084337;28;20040;-68
2020/12/06 02:44:13;;;;;;;8.60;4.35;;;;;;;6.49;68.78;99186.22;5114921;28;20490;-70
2020/12/06 02:46:41;;;;;;;10.10;4.28;;;;;;;6.56;67.97;99189.25;5114968;28;20042;-68
2020/12/06 02:49:08;;;;;;;8.93;4.65;;;;;;;6.48;67.89;99185.44;5112823;28;20044;-71
2020/12/06 02:51:35;;;;;;;7.32;4.20;;;;;;;6.45;68.00;99186.06;5112993;28;20494;-68
2020/12/06 02:54:02;;;;;;;7.93;4.50;;;;;;;6.48;68.02;99179.97;5115337;28;20054;-69
2020/12/06 02:56:31;;;;;;;8.77;4.70;;;;;;;6.50;67.53;99183.16;5094300;28;20044;-71
2020/12/06 02:58:58;;;;;;;7.93;4.28;;;;;;;6.54;67.02;99178.66;5096776;28;20039;-71
2020/12/06 03:01:29;;;;;;;7.30;4.22;;;;;;;6.31;67.37;99185.41;5113106;28;20056;-69
2020/12/06 03:03:57;;;;;;;9.57;4.53;;;;;;;6.20;68.28;99181.41;5107557;28;20043;-70
2020/12/06 03:06:24;;;;;;;8.18;4.28;;;;;;;6.19;68.42;99184.47;5113013;28;20056;-70
2020/12/06 03:08:53;;;;;;;;;;;;;;;6.31;68.05;99176.44;5115387;27;20495;-66
2020/12/06 03:11:25;;;;;;;8.65;4.30;;;;;;;6.51;67.24;99175.75;5116023;28;19931;-71
2020/12/06 03:13:52;;;;;;;8.38;4.22;;;;;;;6.17;67.92;99173.84;5116101;28;20044;-70
2020/12/06 03:16:19;;;;;;;7.97;4.10;;;;;;;6.01;68.66;99183.66;5116776;28;20051;-71
2020/12/06 03:18:46;;;;;;;10.13;4.53;;;;;;;6.10;68.23;99189.91;5116300;28;20063;-70
2020/12/06 03:21:13;;;;;;;8.90;4.40;;;;;;;5.90;68.58;99195.22;5116261;28;20482;-71
2020/12/06 03:23:40;;;;;;;8.43;4.38;;;;;;;6.03;68.30;99200.56;5114362;28;20044;-72
2020/12/06 03:26:07;;;;;;;7.72;4.30;;;;;;;5.98;68.50;99202.63;5114330;28;20050;-70
2020/12/06 03:28:34;;;;;;;8.77;4.43;;;;;;;6.02;68.69;99201.66;5095519;28;20517;-71
2020/12/06 03:31:00;;;;;;;7.50;4.15;;;;;;;6.10;68.27;99200.06;5114166;28;20581;-70
2020/12/06 03:33:30;;;;;;;9.00;4.53;;;;;;;5.82;68.91;99201.44;5112818;28;20047;-72
2020/12/06 03:35:57;;;;;;;8.57;4.25;;;;;;;5.91;69.00;99205.81;5113299;28;20048;-70
2020/12/06 03:38:24;;;;;;;9.60;4.40;;;;;;;5.98;68.45;99208.09;5114111;27;20051;-71
2020/12/06 03:40:50;;;;;;;9.05;4.80;;;;;;;5.91;68.31;99205.81;5113935;27;20387;-71
2020/12/06 03:43:17;;;;;;;8.65;4.43;;;;;;;6.05;68.42;99214.69;5114182;27;20051;-72
2020/12/06 03:45:44;;;;;;;7.03;4.07;;;;;;;5.84;69.20;99210.16;5113733;28;20491;-70
2020/12/06 03:48:11;;;;;;;7.95;4.32;;;;;;;5.93;69.26;99209.03;5112190;28;20043;-70
2020/12/06 03:50:38;;;;;;;9.65;4.50;;;;;;;6.06;68.63;99219.03;5112966;28;20048;-70
2020/12/06 03:53:05;;;;;;;7.50;4.30;;;;;;;6.15;68.50;99217.13;5094113;28;20050;-72
2020/12/06 03:55:32;;;;;;;8.02;4.43;;;;;;;6.12;68.49;99216.97;5111955;28;20514;-71
2020/12/06 03:57:59;;;;;;;9.50;4.45;;;;;;;6.29;68.26;99215.03;5110244;28;20109;-68
2020/12/06 04:00:26;;;;;;;7.53;4.25;;;;;;;6.21;68.54;99215.00;5113610;28;20048;-70
2020/12/06 04:02:53;;;;;;;8.32;4.55;;;;;;;6.00;68.65;99220.31;5110944;28;20048;-69
2020/12/06 04:05:20;;;;;;;12.63;6.25;;;;;;;6.08;69.10;99221.44;5112895;28;20035;-71
2020/12/06 04:07:49;;;;;;;7.63;4.22;;;;;;;6.09;69.00;99218.38;5114227;27;20048;-68
2020/12/06 04:10:17;;;;;;;10.18;4.45;;;;;;;6.13;68.89;99224.03;5094363;28;20526;-68
2020/12/06 04:12:45;;;;;;;9.98;4.35;;;;;;;6.21;68.61;99228.69;5101470;28;20052;-67
2020/12/06 04:15:12;;;;;;;9.73;4.75;;;;;;;6.16;68.87;99215.16;5112404;28;20062;-69
2020/12/06 04:17:39;;;;;;;7.72;4.47;;;;;;;6.02;68.65;99218.06;5110655;28;20043;-69
2020/12/06 04:20:07;;;;;;;9.82;3.92;;;;;;;6.16;68.84;99218.72;5112271;28;20047;-69
2020/12/06 04:22:34;;;;;;;8.45;4.60;;;;;;;6.24;68.79;99222.59;5128339;27;20054;-69
2020/12/06 04:25:00;;;;;;;7.15;3.95;;;;;;;6.21;69.17;99220.47;5115060;28;20043;-69
2020/12/06 04:27:28;;;;;;;8.68;4.50;;;;;;;6.32;68.94;99224.50;5110910;28;20050;-69
2020/12/06 04:30:04;;;;;;;8.45;4.38;;;;;;;6.42;68.63;99222.25;5112850;27;20494;-68
2020/12/06 04:32:31;;;;;;;9.43;4.28;;;;;;;6.40;68.13;99224.50;5112716;28;20043;-70
2020/12/06 04:35:01;;;;;;;7.72;4.30;;;;;;;6.57;68.23;99232.69;5092239;28;20055;-68
2020/12/06 04:37:28;;;;;;;8.23;4.20;;;;;;;6.36;68.00;99233.69;5113803;28;20047;-68
2020/12/06 04:39:55;;;;;;;7.65;4.38;;;;;;;6.51;67.82;99228.53;5113547;27;20062;-67
2020/12/06 04:42:21;;;;;;;8.25;4.50;;;;;;;6.25;69.00;99226.91;5113069;28;20063;-72
2020/12/06 04:44:49;;;;;;;7.95;4.03;;;;;;;6.52;68.01;99221.13;5112713;28;20054;-72
2020/12/06 04:47:34;;;;;;;7.47;4.05;;;;;;;6.35;68.61;99221.94;5110456;28;20047;-68
2020/12/06 04:50:04;;;;;;;9.82;4.50;;;;;;;6.50;67.97;99226.13;5111411;28;20051;-69
2020/12/06 04:52:42;;;;;;;7.55;4.22;;;;;;;6.53;67.89;99229.03;5112293;28;20054;-71
2020/12/06 04:55:13;;;;;;;7.32;3.97;;;;;;;6.66;67.97;99216.28;5110470;28;20106;-70
2020/12/06 04:57:40;;;;;;;7.60;4.00;;;;;;;6.73;67.30;99219.31;5110455;28;20047;-69
2020/12/06 05:00:09;;;;;;;6.45;3.80;;;;;;;6.57;68.23;99221.75;5112069;28;20047;-69
2020/12/06 05:02:41;;;;;;;7.97;3.80;;;;;;;6.54;68.11;99221.59;5111180;28;20048;-69
2020/12/06 05:05:08;;;;;;;8.25;3.85;;;;;;;6.62;68.29;99218.06;5098793;28;20058;-71
2020/12/06 05:07:38;;;;;;;9.75;3.85;;;;;;;6.57;67.71;99219.03;5112622;27;20040;-70
2020/12/06 05:10:07;;;;;;;7.15;4.38;;;;;;;6.59;67.54;99222.25;5111087;28;20408;-71
2020/12/06 05:12:33;;;;;;;6.85;3.70;;;;;;;6.56;68.09;99227.56;5111795;28;20495;-71
2020/12/06 05:15:03;;;;;;;7.30;3.70;;;;;;;6.52;68.51;99227.41;5111742;28;20398;-73
2020/12/06 05:17:30;;;;;;;11.77;4.28;;;;;;;6.49;68.14;99219.03;5111857;28;20032;-70
2020/12/06 05:20:09;;;;;;;6.88;4.07;;;;;;;6.79;67.35;99229.78;5113460;28;20391;-70
2020/12/06 05:22:45;;;;;;;7.30;3.72;;;;;;;6.61;67.87;99228.19;5111052;28;20402;-69
2020/12/06 05:25:15;;;;;;;7.18;4.05;;;;;;;6.65;67.49;99223.69;5112498;28;20108;-66
2020/12/06 05:27:43;;;;;;;7.32;3.95;;;;;;;6.62;67.81;99227.09;5110860;28;20419;-70
2020/12/06 05:30:11;;;;;;;8.23;3.97;;;;;;;6.56;68.39;99228.38;5111954;28;20055;-71
2020/12/06 05:32:38;;;;;;;6.57;3.45;;;;;;;6.85;67.74;99230.44;5111414;28;20056;-68
2020/12/06 05:35:07;;;;;;;9.15;3.92;;;;;;;6.85;66.76;99225.75;5111907;28;20061;-70
2020/12/06 05:37:40;;;;;;;7.65;3.80;;;;;;;6.78;67.56;99227.38;5112303;28;20055;-70
2020/12/06 05:40:16;;;;;;;7.45;3.78;;;;;;;6.62;68.02;99229.00;5095222;28;20051;-68
2020/12/06 05:42:46;;;;;;;8.65;4.55;;;;;;;6.51;68.47;99234.00;5111497;28;20558;-68
2020/12/06 05:45:17;;;;;;;8.77;4.15;;;;;;;6.61;68.92;99235.59;5099566;28;20055;-70
2020/12/06 05:47:44;;;;;;;8.27;3.80;;;;;;;6.67;68.25;99235.13;5111455;28;20043;-72
2020/12/06 05:50:18;;;;;;;8.88;3.92;;;;;;;6.56;68.34;99242.03;5096551;28;20043;-70
2020/12/06 05:52:45;;;;;;;7.03;3.83;;;;;;;6.53;68.61;99255.56;5111125;28;20056;-71
2020/12/06 05:55:13;;;;;;;8.45;4.30;;;;;;;6.64;68.42;99249.44;5112775;28;20059;-71
2020/12/06 05:57:44;;;;;;;8.60;4.22;;;;;;;6.59;68.51;99249.59;5098510;28;20059;-69
2020/12/06 06:00:12;;;;;;;7.93;4.28;;;;;;;6.72;68.09;99264.25;5113774;28;20479;-71
2020/12/06 06:02:43;;;;;;;6.70;3.95;;;;;;;6.65;67.80;99263.91;5130045;27;20054;-73
2020/12/06 06:05:12;;;;;;;7.75;3.88;;;;;;;6.52;68.60;99276.63;5116479;28;20505;-70
2020/12/06 06:07:40;;;;;;;8.30;4.40;;;;;;;6.31;69.02;99275.66;5098755;28;20055;-71
2020/12/06 06:10:10;;;;;;;8.30;4.72;;;;;;;6.56;68.10;99272.13;5115945;27;20062;-73
2020/12/06 06:12:47;;;;;;;7.82;4.68;;;;;;;6.50;68.18;99270.66;5115302;28;20054;-71
2020/12/06 06:15:18;;;;;;;8.23;4.70;;;;;;;6.38;68.74;99275.19;5115535;28;20046;-70
2020/12/06 06:17:52;;;;;;;6.57;3.95;;;;;;;6.36;69.15;99271.97;5109768;27;20056;-71
2020/12/06 06:20:19;;;;;;;7.05;4.03;;;;;;;6.47;68.55;99270.50;5098425;28;20051;-71
2020/12/06 06:22:47;;;;;;;8.52;4.00;;;;;;;6.43;68.71;99267.63;5112261;28;20056;-72
2020/12/06 06:25:15;;;;;;;7.60;4.40;;;;;;;6.44;68.17;99271.97;5116912;28;20040;-71
2020/12/06 06:27:42;;;;;;;6.50;3.88;;;;;;;6.54;68.00;99268.09;5114933;28;20047;-72
2020/12/06 06:30:11;;;;;;;8.80;4.40;;;;;;;6.36;68.17;99274.72;5115511;28;20040;-72
2020/12/06 06:32:42;;;;;;;7.82;4.45;;;;;;;6.39;68.22;99274.88;5116594;28;20052;-73
2020/12/06 06:35:10;;;;;;;8.48;4.43;;;;;;;6.38;68.57;99277.94;5116691;28;20051;-72
2020/12/06 06:37:38;;;;;;;8.43;4.32;;;;;;;6.55;68.21;99286.94;5115889;28;20054;-71
2020/12/06 06:40:08;;;;;;;11.00;4.53;;;;;;;6.35;68.27;99281.28;5116434;27;20055;-70
2020/12/06 06:42:38;;;;;;;8.98;4.60;;;;;;;6.39;68.49;99285.00;5117256;28;20474;-71
2020/12/06 06:45:10;;;;;;;7.10;4.53;;;;;;;6.42;68.84;99279.69;5114790;28;20060;-71
2020/12/06 06:47:42;;;;;;;7.50;4.53;;;;;;;6.37;68.92;99281.78;5114982;28;20048;-71
2020/12/06 06:50:09;;;;;;;;;;;;;;;6.26;69.21;99285.97;5115252;28;20051;-71
2020/12/06 06:52:41;;;;;;;9.50;4.15;;;;;;;6.36;68.74;99291.13;5114385;28;19919;-71
2020/12/06 06:55:09;;;;;;;8.15;4.68;;;;;;;6.25;69.23;99295.28;5114653;28;20390;-71
2020/12/06 06:57:39;;;;;;;12.15;4.60;;;;;;;6.28;68.66;99291.88;5114893;28;20056;-70
2020/12/06 07:00:06;;;;;;;6.93;4.40;;;;;;;6.19;69.21;99291.88;5115999;28;20482;-72
2020/12/06 07:02:33;;;;;;;7.55;4.20;;;;;;;6.41;68.11;99297.25;5116420;27;20055;-72
2020/12/06 07:05:03;;;;;;;8.90;4.55;;;;;;;6.55;67.67;99297.06;5114419;28;20048;-73
2020/12/06 07:07:37;;;;;;;7.63;4.25;;;;;;;6.28;68.86;99305.56;5115926;28;20048;-72
2020/12/06 07:10:07;;;;;;;8.52;5.03;;;;;;;6.35;68.51;99303.97;5116532;27;20067;-70
2020/12/06 07:13:00;;;;;;;7.95;4.68;;;;;;;6.28;69.38;99302.81;5115783;28;20486;-70
2020/12/06 07:15:27;;;;;;;8.55;4.35;;;;;;;6.25;69.56;99309.75;5053966;28;20071;-71
2020/12/06 07:17:58;;;;;;;7.65;4.20;;;;;;;6.35;69.39;99306.72;5036839;28;20055;-72
2020/12/06 07:20:31;;;;;;;8.93;4.90;;;;;;;6.62;68.59;99311.91;5053109;28;20057;-72
2020/12/06 07:22:58;;;;;;;9.65;4.50;;;;;;;6.72;67.93;99311.56;5053808;28;20053;-69
2020/12/06 07:25:25;;;;;;;7.85;4.18;;;;;;;6.55;68.60;99313.50;5036347;28;20060;-68
2020/12/06 07:27:52;;;;;;;7.75;4.40;;;;;;;6.39;69.42;99312.34;5051565;28;20049;-67
2020/12/06 07:30:21;;;;;;;7.85;4.78;;;;;;;6.25;70.24;99320.69;5052262;28;20056;-68
2020/12/06 07:32:49;;;;;;;10.27;4.75;;;;;;;6.43;69.63;99322.31;5053262;28;20060;-67
2020/12/06 07:35:17;;;;;;;8.55;4.85;;;;;;;6.62;69.78;99322.03;5053148;28;20063;-69
2020/12/06 07:37:45;;;;;;;8.40;4.57;;;;;;;6.61;68.94;99326.69;5052479;28;20053;-66
2020/12/06 07:40:12;;;;;;;11.25;5.85;;;;;;;6.42;69.30;99328.09;5035128;28;20045;-70
2020/12/06 07:42:40;;;;;;;8.70;4.97;;;;;;;6.25;70.62;99333.53;5052039;28;20053;-69
2020/12/06 07:45:08;;;;;;;10.57;5.53;;;;;;;6.41;70.17;99334.72;5051999;28;20044;-69
2020/12/06 07:47:35;;;;;;;10.95;5.63;;;;;;;6.57;69.67;99336.66;5051493;28;20060;-73
2020/12/06 07:50:08;;;;;;;10.98;5.97;;;;;;;6.43;69.89;99333.25;5032238;28;20056;-72
2020/12/06 07:52:44;;;;;;;10.75;6.28;;;;;;;6.30;70.89;99334.22;5088326;28;20054;-73
2020/12/06 07:55:11;;;;;;;12.48;5.80;;;;;;;6.36;71.00;99338.38;5115596;28;20043;-75
2020/12/06 07:57:41;;;;;;;12.73;5.82;;;;;;;6.40;71.22;99333.09;5080083;28;20040;-73
2020/12/06 08:00:09;;;;;;;;;;;;;;;6.25;71.03;99342.56;5114955;27;20055;-70
2020/12/06 08:02:41;;;;;;;10.85;5.63;;;;;;;6.14;72.22;99334.97;5114843;28;20420;-72
2020/12/06 08:05:10;;;;;;;11.57;6.28;;;;;;;6.16;71.36;99339.00;5097347;28;20044;-72
2020/12/06 08:07:42;;;;;;;12.60;6.60;;;;;;;6.04;71.83;99330.59;5113241;28;20066;-74
2020/12/06 08:10:12;;;;;;;11.55;6.65;;;;;;;6.28;71.61;99328.25;5113532;28;20048;-72
2020/12/06 08:12:41;;;;;;;13.55;6.32;;;;;;;6.34;71.04;99340.66;5113146;28;20067;-73
2020/12/06 08:15:10;;;;;;;10.77;6.63;;;;;;;6.40;71.25;99333.91;5112432;28;20398;-70
2020/12/06 08:22:27;;;;;;;16.40;8.30;;;;;;;6.24;71.86;99343.66;5114011;28;20051;-75
2020/12/06 08:25:05;;;;;;;11.70;7.60;;;;;;;6.16;72.15;99343.66;5112771;28;20062;-73
2020/12/06 08:27:32;;;;;;;13.32;7.90;;;;;;;6.13;72.04;99353.31;5096430;28;20394;-70
2020/12/06 08:30:02;;;;;;;16.42;8.35;;;;;;;6.37;71.98;99348.22;5112694;28;20047;-73
2020/12/06 08:32:30;;;;;;;10.55;6.72;;;;;;;6.36;70.76;99351.28;5112929;28;20054;-70
2020/12/06 08:39:26;;;;;;;16.45;10.00;;;;;;;6.19;72.93;99356.72;5091498;28;20051;-72
2020/12/06 08:41:54;;;;;;;11.80;7.07;;;;;;;6.37;71.74;99366.53;5056811;28;20044;-71
2020/12/06 08:44:23;;;;;;;11.80;7.35;;;;;;;6.52;70.95;99360.63;5073203;28;20422;-71
2020/12/06 08:46:52;;;;;;;12.27;7.65;;;;;;;6.33;71.77;99365.59;5058209;28;20048;-69
2020/12/06 08:54:04;;;;;;;13.13;7.20;;;;;;;6.35;71.73;99364.13;5109672;28;20398;-69
2020/12/06 08:56:37;;;;;;;11.60;6.25;;;;;;;6.47;70.79;99356.09;5112255;28;20039;-69
2020/12/06 08:59:16;;;;;;;13.70;7.38;;;;;;;6.52;70.55;99355.94;5094978;28;20052;-71
2020/12/06 09:01:52;;;;;;;11.43;7.38;;;;;;;6.49;70.62;99358.53;5113838;27;20052;-73
2020/12/06 09:08:40;;;;;;;13.70;7.82;;;;;;;6.06;71.81;99369.38;5113837;28;20382;-71
2020/12/06 09:11:19;;;;;;;13.60;7.70;;;;;;;6.16;71.91;99366.34;5095146;28;20047;-71
2020/12/06 09:13:47;;;;;;;12.77;7.40;;;;;;;6.20;71.40;99361.84;5112337;27;20056;-73
2020/12/06 09:16:17;;;;;;;12.02;6.80;;;;;;;6.08;72.29;99363.56;5110958;28;20047;-73
2020/12/06 09:23:24;;;;;;;12.27;7.05;;;;;;;6.48;71.25;99374.16;5113696;28;20041;-76
2020/12/06 09:25:51;;;;;;;11.25;7.30;;;;;;;6.30;71.39;99386.16;5113510;28;20511;-71
2020/12/06 09:28:17;;;;;;;13.40;6.97;;;;;;;6.55;70.45;99390.09;5113180;28;20052;-73
2020/12/06 09:30:47;;;;;;;11.18;7.50;;;;;;;6.61;69.99;99389.59;5113120;28;20433;-73
2020/12/06 09:33:15;;;;;;;14.38;7.38;;;;;;;6.75;69.95;99395.75;5094059;28;20379;-72
2020/12/06 09:35:41;;;;;;;12.93;7.70;;;;;;;6.61;69.86;99389.59;5116450;28;20514;-68
2020/12/06 09:38:13;;;;;;;12.18;7.13;;;;;;;6.75;69.01;99395.75;5115089;28;20059;-74
2020/12/06 09:40:40;;;;;;;11.13;6.97;;;;;;;6.64;69.88;99388.97;5115672;28;20044;-73
2020/12/06 09:43:08;;;;;;;10.80;7.18;;;;;;;6.43;69.86;99396.16;5115545;28;20055;-72
2020/12/06 09:45:46;;;;;;;12.25;7.50;;;;;;;6.47;69.94;99390.84;5116957;28;20051;-70
2020/12/06 09:48:13;;;;;;;10.65;7.15;;;;;;;6.58;70.00;99384.78;5117107;27;20043;-73
2020/12/06 09:55:11;;;;;;;10.48;6.70;;;;;;;6.59;70.21;99382.84;5116635;27;20051;-70
2020/12/06 09:57:41;;;;;;;11.65;7.05;;;;;;;6.65;69.11;99390.59;5117092;28;20048;-72
2020/12/06 10:00:08;;;;;;;23.52;14.30;;;;;;;6.55;69.69;99396.38;5117092;27;20471;-74
2020/12/06 10:02:39;;;;;;;12.98;7.57;;;;;;;6.57;69.35;99394.09;5116695;27;20398;-75
2020/12/06 10:09:52;;;;;;;;;;;;;;;6.94;68.70;99400.13;5117475;28;20372;-71
2020/12/06 10:12:19;;;;;;;12.55;6.70;;;;;;;6.81;68.44;99402.69;5116833;28;20285;-73
2020/12/06 10:14:48;;;;;;;10.73;6.32;;;;;;;6.78;67.76;99410.72;5116730;28;20063;-72
2020/12/06 10:17:15;;;;;;;9.57;6.43;;;;;;;6.87;67.90;99408.00;5114499;27;20051;-73
2020/12/06 10:19:42;;;;;;;11.20;6.90;;;;;;;6.79;68.31;99404.13;5116246;28;20103;-71
2020/12/06 10:22:10;;;;;;;11.65;6.88;;;;;;;6.92;68.22;99408.66;5114898;28;20498;-73
2020/12/06 10:24:36;;;;;;;10.40;6.32;;;;;;;6.97;68.23;99402.19;5482622;22;20732;-74
2020/12/06 10:27:03;;;;;;;10.35;6.25;;;;;;;7.32;66.99;99403.81;5033188;28;20045;-73
2020/12/06 10:29:31;;;;;;;9.85;6.40;;;;;;;7.18;66.97;99411.38;5032069;28;20037;-72
2020/12/06 10:32:02;;;;;;;11.88;6.63;;;;;;;7.09;67.18;99400.44;5028064;28;20050;-75
2020/12/06 10:34:29;;;;;;;11.02;6.57;;;;;;;7.22;67.50;99404.94;5035754;28;20045;-74
2020/12/06 10:36:58;;;;;;;14.10;7.20;;;;;;;7.23;67.13;99400.25;5032780;28;20045;-73
2020/12/06 10:39:26;;;;;;;18.50;11.38;;;;;;;7.19;67.84;99402.03;5030335;28;20065;-74
2020/12/06 10:42:04;;;;;;;14.82;9.73;;;;;;;7.55;66.54;99397.78;5015921;28;20409;-77
2020/12/06 10:44:34;;;;;;;10.30;6.63;;;;;;;7.30;67.47;99401.41;5014652;28;20052;-76
2020/12/06 10:47:01;;;;;;;10.90;6.85;;;;;;;7.44;66.53;99387.50;5013260;28;20052;-77
2020/12/06 10:49:30;;;;;;;11.65;6.93;;;;;;;7.39;67.18;99379.47;5033507;28;20045;-76
2020/12/06 10:52:00;;;;;;;13.70;7.13;;;;;;;7.70;65.55;99382.78;5001074;28;20056;-76
2020/12/06 10:54:30;;;;;;;11.60;7.15;;;;;;;7.34;66.19;99377.69;5029864;28;20060;-75
2020/12/06 10:56:57;;;;;;;15.90;7.57;;;;;;;7.56;66.33;99377.50;5028519;28;20060;-78
2020/12/06 10:59:27;;;;;;;12.95;7.60;;;;;;;7.77;65.55;99391.31;5031041;28;20053;-73
2020/12/06 11:01:58;;;;;;;;;;;;;;;8.02;64.78;99388.47;5014973;28;20044;-74
2020/12/06 11:04:25;;;;;;;13.50;8.23;;;;;;;7.78;65.90;99380.00;5029223;28;19925;-74
2020/12/06 11:06:52;;;;;;;13.10;8.02;;;;;;;7.68;66.42;99383.09;5032767;28;20053;-76
2020/12/06 11:09:28;;;;;;;12.50;7.93;;;;;;;7.78;65.98;99384.69;5014159;28;20049;-76
2020/12/06 11:12:19;;;;;;;12.85;8.02;;;;;;;8.00;65.83;99382.50;5027615;28;20054;-74
2020/12/06 11:14:47;;;;;;;12.63;8.27;;;;;;;8.12;65.55;99386.50;5015614;28;20054;-74
2020/12/06 11:17:14;;;;;;;12.68;7.93;;;;;;;8.12;65.24;99378.28;5029296;28;20057;-77
2020/12/06 11:19:41;;;;;;;13.43;7.45;;;;;;;8.15;65.10;99381.16;5030720;28;20049;-74
2020/12/06 11:22:14;;;;;;;12.35;7.60;;;;;;;8.28;64.93;99377.41;5031648;28;20045;-71
2020/12/06 11:24:40;;;;;;;14.38;8.77;;;;;;;8.45;63.50;99382.00;5011666;28;20045;-70
2020/12/06 11:27:10;;;;;;;13.65;8.10;;;;;;;8.40;63.17;99380.25;5031428;28;20507;-72
2020/12/06 11:29:40;;;;;;;11.45;7.35;;;;;;;8.28;63.66;99377.41;5022902;28;20052;-73
2020/12/06 11:32:10;;;;;;;12.15;7.28;;;;;;;8.17;64.20;99383.56;5027255;28;20045;-73
2020/12/06 11:34:37;;;;;;;12.70;7.18;;;;;;;8.39;63.90;99381.38;5029858;28;20049;-72
2020/12/06 11:37:08;;;;;;;13.13;7.57;;;;;;;8.14;63.99;99376.81;5012881;28;20056;-74
2020/12/06 11:39:34;;;;;;;13.35;7.72;;;;;;;8.13;64.73;99375.19;5031168;28;20500;-73
2020/12/06 11:42:02;;;;;;;14.55;7.80;;;;;;;8.21;64.76;99376.28;5031467;28;20061;-73
2020/12/06 11:44:47;;;;;;;13.27;7.85;;;;;;;8.22;63.89;99375.16;5014739;28;20088;-72
2020/12/06 11:47:14;;;;;;;14.32;8.13;;;;;;;8.15;64.56;99378.41;5030987;28;20080;-74
2020/12/06 11:49:41;;;;;;;10.82;7.65;;;;;;;8.13;64.52;99377.13;5030647;28;20369;-73
2020/12/06 11:52:08;;;;;;;11.95;7.97;;;;;;;8.06;64.80;99382.31;5012437;28;20061;-70
2020/12/06 11:54:38;;;;;;;15.77;8.30;;;;;;;7.98;64.91;99378.50;5027096;28;20400;-74
2020/12/06 11:57:07;;;;;;;11.52;7.15;;;;;;;7.96;64.89;99380.75;5028645;28;20049;-77
2020/12/06 11:59:35;;;;;;;13.60;7.65;;;;;;;8.00;64.96;99379.75;5028353;28;20048;-74
2020/12/06 12:02:02;;;;;;;16.40;8.20;;;;;;;8.18;64.74;99382.41;5010931;28;20041;-74
2020/12/06 12:04:29;;;;;;;10.60;6.97;;;;;;;8.25;64.48;99380.00;5030404;28;20049;-69
2020/12/06 12:06:56;;;;;;;12.60;7.15;;;;;;;8.34;64.54;99391.75;5030257;28;20506;-71
2020/12/06 12:09:23;;;;;;;11.65;6.95;;;;;;;8.34;63.74;99383.50;5029136;28;20052;-73
2020/12/06 12:11:50;;;;;;;10.75;6.78;;;;;;;8.46;64.07;99389.09;5026139;28;20065;-75
2020/12/06 12:14:20;;;;;;;14.63;7.95;;;;;;;8.04;64.61;99392.84;5010839;28;20069;-82
2020/12/06 12:16:47;;;;;;;21.35;15.15;;;;;;;8.11;64.73;99393.91;4995481;28;20408;-74
2020/12/06 12:19:16;;;;;;;13.15;7.88;;;;;;;8.24;64.51;99390.19;5029560;28;20266;-71